石見空港の過去48時間の天気

石見空港 (Iwami)

現在時刻: 9/23 06:26 JST (9/22 21:26 UTC) 以下の時間は現地時間です。

過去48時間のMETAR気象情報
時間 風向 風速(m/s) 視程 気温(℃) 湿度(%) 気圧(hPa) 天気現象
22 19:00 北東 4 10km以上 23 100 997 弱いしゅう雨
22 18:00 北東 3 10km以上 23 100 998 弱いしゅう雨
22 17:00 北東 4 10km以上 23 100 999 弱いしゅう雨
22 16:00 北東 5 10km以上 23 94 1000 弱いしゅう雨
22 15:00 北東 4 10km以上 24 94 1001 弱いしゅう雨
22 14:00 北東 5 10km以上 24 89 1002 弱いしゅう雨
22 13:00 北東 5 10km以上 24 89 1004
22 12:00 北東 6 10km以上 24 89 1005
22 11:00 不定 1 10km以上 23 100 1007 弱いしゅう雨
22 10:00 不定 1 10km以上 23 94 1008 弱いしゅう雨
22 09:00 不定 1 10km以上 21 100 1009 弱いしゅう雨
22 08:00 不定 1 10km以上 20 100 1009 弱いしゅう雨
RJOW 221000Z 04007KT 010V070 9999 -SHRA FEW001 SCT035 BKN100 23/23 Q0997
RJOW 220900Z 04005KT 9999 -SHRA FEW001 SCT035 BKN100 23/23 Q0998
RJOW 220800Z 05008KT 9999 -SHRA FEW001 SCT040 BKN100 23/23 Q0999
RJOW 220700Z 05009KT 020V090 9999 -SHRA FEW001 SCT045 BKN100 23/22 Q1000
RJOW 220600Z 04008KT 9999 -SHRA FEW002 SCT040 BKN110 24/23 Q1001
RJOW 220500Z 04009KT 9999 -SHRA FEW002 SCT040 BKN110 24/22 Q1002
RJOW 220400Z 04010KT 010V080 9999 FEW001 SCT040 BKN110 24/22 Q1004
RJOW 220300Z 05011KT 020V080 9999 FEW001 SCT030 BKN110 24/22 Q1005
RJOW 220200Z VRB02KT 9999 -SHRA FEW001 BKN040 BKN120 23/23 Q1007
RJOW 220100Z VRB01KT 9999 -SHRA FEW001 SCT045 BKN110 23/22 Q1008
RJOW 220000Z VRB02KT 9999 -SHRA FEW001 SCT030 BKN045 21/21 Q1009
RJOW 212300Z VRB01KT 9999 -SHRA FEW001 SCT030 BKN045 20/20 Q1009